الصفحة الرئيسية
METAR-TAF:

METAR-TAF

مطار :

أباكان, روسيا

دائرة عرض: 53-45N, خط طول: 091-24E, ارتفاع: 245 متر

مراقبة الطقس الحالي

تاريخ ووقت الإصدار 26 دقيقة قبل الساعة 21:30UTC
رياح هادئة
درجة الحرارة -27°درجة مئوية
الرطوبة 75%
ضغط 1035 hPa
الرؤية: 1700 متر
غشاء, دخان

METAR: UNAA 182130Z 00000MPS 1700 R02/P2000U BR FU NSC M27/M30 Q1035 R02/090057 NOSIG RMK QFE753

زمن: 04:56 (21:56 UTC)

توقعات

تاريخ ووقت الإصدار 1ساعة و 46 دقيقة قبل الساعة 20:10UTC
التوقعات صالحة من18 الساعة 21 UTC إلى 19 الساعة 21 UTC
ريح 4 عقدة من الغرب/الجنوب الغربي
الرؤية: 2000 متر
غشاء, دخان
مؤقت
من 18 الساعة 21 UTC إلى 19 الساعة 08 UTC
الرؤية: 1000 متر
غيوم قليلة على ارتفاع 400 قدم
غشاء, دخان
أصبح
من 19 الساعة 08 UTC إلى 19 الساعة 09 UTC
الرؤية: 3200 متر
غيوم متفرقة على ارتفاع 1100 قدم
ثلوج خفيفة, غشاء
مؤقت
من 19 الساعة 09 UTC إلى 19 الساعة 21 UTC
الرؤية: 1500 متر
ثلوج خفيفة, غشاء

TAF: UNAA 182010Z 1821/1921 24002MPS 2000 BR FU NSC TEMPO 1821/1908 1000 BR FU FEW004 BECMG 1908/1909 3200 -SN BR SCT011 TEMPO 1909/1921 1500 -SN BR

أرصاد الطقس والتوقعات من أكثر من 4000 مطار (تقارير الطقس للمطار METAR والتنبؤ بالطقس بالمطارTAF).

المحطات المتاحة هي النقط الصفراء والحمراء على الخريطة.

حرك المؤشر فوق النقطة لمعرفة اسم المحطة.

ثم انقر لمعرفة أرصاد وتوقعات الطقس.

لتغيير الخارطة: اضغط على الأزرار الخضراء مع رمز الصليب الأسود للتكبير. على الزر الأخضر مع شرطة للتصغير، أو على الأسهم الخضراء للخرائط المجاورة.


METAR-TAF: